TSO103 ULLI-UUWW
Flight info
| Callsign | TSO103 |
|---|---|
| Flight time | 0h 58m |
| Altitude | 35000 |
| Route | SUGIN1B SUGIN T873 NIRGI T73 DESUD T834 ADOKU/K0757F270 T834 BEKIP BEKIP3A |
| Aircraft | A388/J-SADE2E3FGHIJ3J4J5M1RWXY/LB1D1 |
Departure
| Time | 2026-05-07 20:07 |
|---|---|
| Airport | Pulkovo Airport (ULLI) |
Arrival
| Time | 2026-05-07 21:06 |
|---|---|
| Airport | Vnukovo International Airport (UUWW) |
| Time | Latitude | Longitude | Altitude | Speed | Heading |
|---|---|---|---|---|---|
| 2026-05-07 20:03 | 59.79610 | 30.26185 | 91 ft | 0 kts | 107° |
| 2026-05-07 20:03 | 59.79609 | 30.26189 | 91 ft | 2 kts | 107° |
| 2026-05-07 20:04 | 59.79599 | 30.26256 | 92 ft | 8 kts | 107° |
| 2026-05-07 20:04 | 59.79560 | 30.26337 | 94 ft | 10 kts | 166° |
| 2026-05-07 20:04 | 59.79497 | 30.26412 | 94 ft | 12 kts | 126° |
| 2026-05-07 20:04 | 59.79463 | 30.26583 | 93 ft | 15 kts | 107° |
| 2026-05-07 20:05 | 59.79430 | 30.26798 | 95 ft | 17 kts | 107° |
| 2026-05-07 20:05 | 59.79395 | 30.27035 | 96 ft | 19 kts | 107° |
| 2026-05-07 20:05 | 59.79357 | 30.27287 | 95 ft | 20 kts | 106° |
| 2026-05-07 20:05 | 59.79318 | 30.27555 | 96 ft | 21 kts | 106° |
| 2026-05-07 20:06 | 59.79278 | 30.27828 | 95 ft | 21 kts | 107° |
| 2026-05-07 20:06 | 59.79234 | 30.28111 | 97 ft | 21 kts | 114° |
| 2026-05-07 20:06 | 59.79123 | 30.28256 | 98 ft | 20 kts | 172° |
| 2026-05-07 20:06 | 59.79053 | 30.28164 | 98 ft | 13 kts | 269° |
| 2026-05-07 20:07 | 59.79098 | 30.27824 | 96 ft | 63 kts | 287° |
| 2026-05-07 20:07 | 59.79319 | 30.26356 | 95 ft | 148 kts | 287° |
| 2026-05-07 20:07 | 59.79666 | 30.24161 | 420 ft | 174 kts | 287° |
| 2026-05-07 20:07 | 59.80036 | 30.21789 | 904 ft | 184 kts | 286° |
| 2026-05-07 20:08 | 59.80396 | 30.19309 | 1439 ft | 190 kts | 287° |
| 2026-05-07 20:08 | 59.80766 | 30.16878 | 2054 ft | 189 kts | 288° |
| 2026-05-07 20:08 | 59.81168 | 30.14284 | 2306 ft | 205 kts | 288° |
| 2026-05-07 20:08 | 59.81611 | 30.11417 | 2575 ft | 230 kts | 288° |
| 2026-05-07 20:09 | 59.82100 | 30.08255 | 3079 ft | 250 kts | 289° |
| 2026-05-07 20:09 | 59.82607 | 30.04891 | 3987 ft | 251 kts | 288° |
| 2026-05-07 20:09 | 59.82837 | 30.01539 | 5322 ft | 244 kts | 268° |
| 2026-05-07 20:10 | 59.81098 | 29.95828 | 7252 ft | 258 kts | 211° |
| 2026-05-07 20:10 | 59.79424 | 29.94606 | 8303 ft | 257 kts | 196° |
| 2026-05-07 20:10 | 59.77688 | 29.93676 | 9285 ft | 258 kts | 198° |
| 2026-05-07 20:10 | 59.75940 | 29.92820 | 10255 ft | 262 kts | 187° |
| 2026-05-07 20:11 | 59.74129 | 29.93333 | 11151 ft | 269 kts | 159° |
| 2026-05-07 20:11 | 59.72582 | 29.95499 | 11993 ft | 279 kts | 132° |
| 2026-05-07 20:11 | 59.71632 | 29.98884 | 12766 ft | 288 kts | 109° |
| 2026-05-07 20:11 | 59.71115 | 30.02882 | 13113 ft | 312 kts | 102° |
| 2026-05-07 20:12 | 59.70672 | 30.07258 | 13350 ft | 334 kts | 102° |
| 2026-05-07 20:12 | 59.70148 | 30.11834 | 13570 ft | 355 kts | 104° |
| 2026-05-07 20:12 | 59.69671 | 30.16786 | 13853 ft | 372 kts | 96° |
| 2026-05-07 20:12 | 59.69544 | 30.21952 | 14426 ft | 378 kts | 91° |
| 2026-05-07 20:13 | 59.69484 | 30.27193 | 15022 ft | 384 kts | 92° |
| 2026-05-07 20:13 | 59.69381 | 30.32535 | 15615 ft | 389 kts | 95° |
| 2026-05-07 20:13 | 59.68974 | 30.37870 | 16217 ft | 393 kts | 104° |
| 2026-05-07 20:13 | 59.68376 | 30.43181 | 16795 ft | 398 kts | 104° |
| 2026-05-07 20:14 | 59.67792 | 30.48574 | 17397 ft | 403 kts | 104° |
| 2026-05-07 20:14 | 59.67207 | 30.54048 | 17975 ft | 408 kts | 104° |
| 2026-05-07 20:14 | 59.66624 | 30.59498 | 18514 ft | 413 kts | 104° |
| 2026-05-07 20:14 | 59.66026 | 30.65073 | 19018 ft | 417 kts | 105° |
| 2026-05-07 20:15 | 59.65415 | 30.70734 | 19506 ft | 422 kts | 104° |
| 2026-05-07 20:15 | 59.64887 | 30.76486 | 19985 ft | 427 kts | 102° |
| 2026-05-07 20:15 | 59.64431 | 30.82326 | 20444 ft | 432 kts | 102° |
| 2026-05-07 20:15 | 59.63974 | 30.88251 | 20862 ft | 438 kts | 102° |
| 2026-05-07 20:16 | 59.63499 | 30.94221 | 21367 ft | 441 kts | 102° |
| 2026-05-07 20:16 | 59.63006 | 31.00233 | 21844 ft | 445 kts | 103° |
| 2026-05-07 20:16 | 59.62498 | 31.06295 | 22314 ft | 450 kts | 103° |
| 2026-05-07 20:16 | 59.61978 | 31.12426 | 22788 ft | 454 kts | 103° |
| 2026-05-07 20:17 | 59.61450 | 31.18606 | 23259 ft | 458 kts | 103° |
| 2026-05-07 20:17 | 59.60922 | 31.24762 | 23708 ft | 462 kts | 104° |
| 2026-05-07 20:17 | 59.60378 | 31.31052 | 24125 ft | 465 kts | 104° |
| 2026-05-07 20:17 | 59.59828 | 31.37385 | 24551 ft | 468 kts | 104° |
| 2026-05-07 20:18 | 59.59273 | 31.43740 | 24974 ft | 471 kts | 104° |
| 2026-05-07 20:18 | 59.58712 | 31.50122 | 25369 ft | 474 kts | 104° |
| 2026-05-07 20:18 | 59.58152 | 31.56461 | 25805 ft | 477 kts | 104° |
| 2026-05-07 20:18 | 59.57576 | 31.62939 | 26257 ft | 480 kts | 104° |
| 2026-05-07 20:19 | 59.56993 | 31.69452 | 26743 ft | 484 kts | 105° |
| 2026-05-07 20:19 | 59.56401 | 31.76024 | 27233 ft | 487 kts | 105° |
| 2026-05-07 20:19 | 59.55803 | 31.82637 | 27724 ft | 491 kts | 105° |
| 2026-05-07 20:19 | 59.55195 | 31.89308 | 28211 ft | 495 kts | 105° |
| 2026-05-07 20:20 | 59.54581 | 31.96011 | 28708 ft | 499 kts | 105° |
| 2026-05-07 20:20 | 59.53948 | 32.02767 | 29203 ft | 501 kts | 108° |
| 2026-05-07 20:20 | 59.52906 | 32.09260 | 29693 ft | 494 kts | 121° |
| 2026-05-07 20:20 | 59.51256 | 32.15127 | 30185 ft | 485 kts | 134° |
| 2026-05-07 20:21 | 59.49138 | 32.20072 | 30571 ft | 476 kts | 144° |
| 2026-05-07 20:21 | 59.46731 | 32.24538 | 31017 ft | 475 kts | 147° |
| 2026-05-07 20:21 | 59.44279 | 32.28919 | 31448 ft | 479 kts | 146° |
| 2026-05-07 20:21 | 59.41827 | 32.33412 | 31880 ft | 484 kts | 145° |
| 2026-05-07 20:22 | 59.39387 | 32.38013 | 32304 ft | 488 kts | 144° |
| 2026-05-07 20:22 | 59.36946 | 32.42697 | 32722 ft | 492 kts | 144° |
| 2026-05-07 20:22 | 59.34493 | 32.47437 | 33114 ft | 496 kts | 144° |
| 2026-05-07 20:22 | 59.32026 | 32.52209 | 33531 ft | 500 kts | 144° |
| 2026-05-07 20:23 | 59.29538 | 32.57013 | 33948 ft | 503 kts | 144° |
| 2026-05-07 20:23 | 59.27029 | 32.61844 | 34258 ft | 507 kts | 144° |
| 2026-05-07 20:23 | 59.24536 | 32.66632 | 34606 ft | 510 kts | 143° |
| 2026-05-07 20:23 | 59.21994 | 32.71505 | 34982 ft | 513 kts | 143° |
| 2026-05-07 20:24 | 59.19426 | 32.76413 | 35044 ft | 516 kts | 143° |
| 2026-05-07 20:24 | 59.14339 | 32.86117 | 35044 ft | 518 kts | 143° |
| 2026-05-07 20:24 | 59.11720 | 32.91076 | 35044 ft | 530 kts | 143° |
| 2026-05-07 20:25 | 59.09048 | 32.96127 | 35037 ft | 534 kts | 143° |
| 2026-05-07 20:25 | 59.03735 | 33.06179 | 35043 ft | 532 kts | 143° |
| 2026-05-07 20:26 | 58.98422 | 33.16172 | 35036 ft | 532 kts | 143° |
| 2026-05-07 20:26 | 58.93094 | 33.26140 | 35035 ft | 532 kts | 143° |
| 2026-05-07 20:27 | 58.87792 | 33.36012 | 35036 ft | 532 kts | 143° |
| 2026-05-07 20:27 | 58.82445 | 33.45925 | 34997 ft | 533 kts | 143° |
| 2026-05-07 20:28 | 58.77085 | 33.55819 | 35032 ft | 532 kts | 143° |
| 2026-05-07 20:28 | 58.71757 | 33.65608 | 35029 ft | 532 kts | 143° |
| 2026-05-07 20:29 | 58.66399 | 33.75408 | 35028 ft | 532 kts | 144° |
| 2026-05-07 20:29 | 58.61020 | 33.85203 | 34991 ft | 531 kts | 144° |
| 2026-05-07 20:30 | 58.55647 | 33.94945 | 35017 ft | 531 kts | 144° |
| 2026-05-07 20:30 | 58.50270 | 34.04650 | 35019 ft | 531 kts | 144° |
| 2026-05-07 20:31 | 58.44919 | 34.14265 | 35016 ft | 530 kts | 144° |
| 2026-05-07 20:31 | 58.39531 | 34.23906 | 35017 ft | 530 kts | 144° |
| 2026-05-07 20:32 | 58.34132 | 34.33522 | 35010 ft | 530 kts | 144° |
| 2026-05-07 20:32 | 58.28725 | 34.43110 | 34998 ft | 530 kts | 144° |
| 2026-05-07 20:33 | 58.23357 | 34.52589 | 35003 ft | 530 kts | 144° |
| 2026-05-07 20:33 | 58.17666 | 34.61258 | 34993 ft | 520 kts | 152° |
| 2026-05-07 20:34 | 58.12086 | 34.70325 | 34982 ft | 532 kts | 144° |
| 2026-05-07 20:34 | 58.06603 | 34.79541 | 34984 ft | 529 kts | 146° |
| 2026-05-07 20:35 | 58.00978 | 34.88507 | 34983 ft | 528 kts | 147° |
| 2026-05-07 20:35 | 57.95327 | 34.97355 | 34976 ft | 528 kts | 147° |
| 2026-05-07 20:36 | 57.89666 | 35.06171 | 34940 ft | 530 kts | 147° |
| 2026-05-07 20:36 | 57.84004 | 35.14962 | 34973 ft | 530 kts | 147° |
| 2026-05-07 20:37 | 57.78316 | 35.23756 | 34959 ft | 529 kts | 147° |
| 2026-05-07 20:37 | 57.72627 | 35.32515 | 34961 ft | 529 kts | 147° |
| 2026-05-07 20:38 | 57.66958 | 35.41206 | 34932 ft | 529 kts | 147° |
| 2026-05-07 20:38 | 57.61231 | 35.49891 | 34956 ft | 528 kts | 150° |
| 2026-05-07 20:38 | 57.58126 | 35.53415 | 34958 ft | 517 kts | 161° |
| 2026-05-07 20:39 | 57.54801 | 35.55768 | 34964 ft | 507 kts | 171° |
| 2026-05-07 20:39 | 57.49116 | 35.58469 | 34952 ft | 505 kts | 172° |
| 2026-05-07 20:40 | 57.41256 | 35.62557 | 34949 ft | 497 kts | 170° |
| 2026-05-07 20:40 | 57.35806 | 35.65676 | 34921 ft | 490 kts | 169° |
| 2026-05-07 20:41 | 57.29281 | 35.69748 | 34943 ft | 501 kts | 160° |
| 2026-05-07 20:41 | 57.23340 | 35.76860 | 34941 ft | 512 kts | 148° |
| 2026-05-07 20:42 | 57.17651 | 35.84628 | 34939 ft | 511 kts | 149° |
| 2026-05-07 20:42 | 57.11859 | 35.92195 | 34882 ft | 508 kts | 150° |
| 2026-05-07 20:42 | 57.08956 | 35.95921 | 34409 ft | 505 kts | 151° |
| 2026-05-07 20:43 | 57.06105 | 35.99559 | 33880 ft | 501 kts | 150° |
| 2026-05-07 20:43 | 57.03246 | 36.03198 | 33261 ft | 496 kts | 150° |
| 2026-05-07 20:43 | 57.00420 | 36.06789 | 32687 ft | 490 kts | 151° |
| 2026-05-07 20:43 | 56.97665 | 36.10284 | 32132 ft | 485 kts | 151° |
| 2026-05-07 20:44 | 56.94899 | 36.13787 | 31578 ft | 480 kts | 151° |
| 2026-05-07 20:44 | 56.92165 | 36.17243 | 31036 ft | 475 kts | 151° |
| 2026-05-07 20:44 | 56.89449 | 36.20670 | 30496 ft | 470 kts | 151° |
| 2026-05-07 20:44 | 56.86766 | 36.24049 | 29964 ft | 465 kts | 151° |
| 2026-05-07 20:45 | 56.84106 | 36.27392 | 29331 ft | 461 kts | 150° |
| 2026-05-07 20:45 | 56.81529 | 36.30851 | 28658 ft | 461 kts | 143° |
| 2026-05-07 20:45 | 56.79209 | 36.34862 | 28075 ft | 456 kts | 144° |
| 2026-05-07 20:45 | 56.76791 | 36.38431 | 27486 ft | 449 kts | 147° |
| 2026-05-07 20:46 | 56.74320 | 36.41875 | 26908 ft | 445 kts | 147° |
| 2026-05-07 20:46 | 56.71884 | 36.45314 | 26340 ft | 441 kts | 147° |
| 2026-05-07 20:46 | 56.69485 | 36.48781 | 25771 ft | 438 kts | 146° |
| 2026-05-07 20:46 | 56.67120 | 36.52253 | 25216 ft | 434 kts | 146° |
| 2026-05-07 20:47 | 56.64787 | 36.55697 | 24673 ft | 430 kts | 146° |
| 2026-05-07 20:47 | 56.62473 | 36.59115 | 24139 ft | 427 kts | 146° |
| 2026-05-07 20:47 | 56.60186 | 36.62492 | 23617 ft | 423 kts | 146° |
| 2026-05-07 20:47 | 56.57800 | 36.65522 | 22994 ft | 412 kts | 158° |
| 2026-05-07 20:48 | 56.55164 | 36.67325 | 22409 ft | 399 kts | 171° |
| 2026-05-07 20:48 | 56.52505 | 36.68352 | 21790 ft | 393 kts | 175° |
| 2026-05-07 20:48 | 56.49822 | 36.69253 | 21195 ft | 390 kts | 175° |
| 2026-05-07 20:48 | 56.47170 | 36.70211 | 20622 ft | 387 kts | 173° |
| 2026-05-07 20:49 | 56.44533 | 36.71253 | 20059 ft | 385 kts | 173° |
| 2026-05-07 20:49 | 56.41987 | 36.72754 | 19485 ft | 391 kts | 158° |
| 2026-05-07 20:49 | 56.39750 | 36.75612 | 18954 ft | 399 kts | 140° |
| 2026-05-07 20:49 | 56.38034 | 36.79592 | 18430 ft | 403 kts | 127° |
| 2026-05-07 20:50 | 56.36517 | 36.83829 | 17857 ft | 401 kts | 127° |
| 2026-05-07 20:50 | 56.35011 | 36.88039 | 17288 ft | 397 kts | 127° |
| 2026-05-07 20:50 | 56.33523 | 36.92209 | 16724 ft | 393 kts | 127° |
| 2026-05-07 20:50 | 56.32013 | 36.96278 | 16187 ft | 386 kts | 133° |
| 2026-05-07 20:51 | 56.30127 | 36.99489 | 15717 ft | 373 kts | 147° |
| 2026-05-07 20:51 | 56.28270 | 37.02814 | 15177 ft | 378 kts | 133° |
| 2026-05-07 20:51 | 56.26670 | 37.06573 | 14646 ft | 375 kts | 132° |
| 2026-05-07 20:51 | 56.25096 | 37.10299 | 14143 ft | 372 kts | 132° |
| 2026-05-07 20:52 | 56.23537 | 37.14000 | 13643 ft | 369 kts | 132° |
| 2026-05-07 20:52 | 56.22017 | 37.17622 | 13113 ft | 366 kts | 132° |
| 2026-05-07 20:52 | 56.20508 | 37.21240 | 12830 ft | 354 kts | 132° |
| 2026-05-07 20:52 | 56.19075 | 37.24706 | 12588 ft | 338 kts | 132° |
| 2026-05-07 20:53 | 56.17713 | 37.28036 | 12399 ft | 320 kts | 132° |
| 2026-05-07 20:53 | 56.16427 | 37.31217 | 11942 ft | 314 kts | 132° |
| 2026-05-07 20:53 | 56.15156 | 37.34374 | 11379 ft | 310 kts | 132° |
| 2026-05-07 20:53 | 56.13890 | 37.37484 | 10844 ft | 306 kts | 132° |
| 2026-05-07 20:54 | 56.12643 | 37.40559 | 10345 ft | 303 kts | 132° |
| 2026-05-07 20:54 | 56.11433 | 37.43560 | 9834 ft | 299 kts | 132° |
| 2026-05-07 20:54 | 56.10226 | 37.46563 | 9287 ft | 295 kts | 132° |
| 2026-05-07 20:54 | 56.09021 | 37.49544 | 8720 ft | 292 kts | 132° |
| 2026-05-07 20:55 | 56.07825 | 37.52467 | 8183 ft | 288 kts | 132° |
| 2026-05-07 20:55 | 56.06637 | 37.55328 | 7641 ft | 285 kts | 132° |
| 2026-05-07 20:55 | 56.05453 | 37.58151 | 7094 ft | 282 kts | 132° |
| 2026-05-07 20:55 | 56.04292 | 37.60909 | 6594 ft | 279 kts | 130° |
| 2026-05-07 20:56 | 56.03085 | 37.63573 | 6020 ft | 272 kts | 144° |
| 2026-05-07 20:56 | 56.01460 | 37.65131 | 5432 ft | 262 kts | 171° |
| 2026-05-07 20:56 | 55.99677 | 37.65199 | 4816 ft | 257 kts | 195° |
| 2026-05-07 20:56 | 55.97968 | 37.64281 | 4190 ft | 257 kts | 198° |
| 2026-05-07 20:57 | 55.96250 | 37.63375 | 3613 ft | 257 kts | 198° |
| 2026-05-07 20:57 | 55.94545 | 37.62512 | 3009 ft | 255 kts | 198° |
| 2026-05-07 20:57 | 55.92820 | 37.61644 | 2589 ft | 259 kts | 197° |
| 2026-05-07 20:57 | 55.91097 | 37.60777 | 2482 ft | 256 kts | 198° |
| 2026-05-07 20:58 | 55.89378 | 37.59910 | 2484 ft | 257 kts | 198° |
| 2026-05-07 20:58 | 55.87651 | 37.59035 | 2482 ft | 257 kts | 197° |
| 2026-05-07 20:58 | 55.85966 | 37.58181 | 2483 ft | 248 kts | 196° |
| 2026-05-07 20:58 | 55.84189 | 37.57282 | 2487 ft | 283 kts | 196° |
| 2026-05-07 20:59 | 55.82270 | 37.56312 | 2479 ft | 284 kts | 196° |
| 2026-05-07 20:59 | 55.80448 | 37.55396 | 2484 ft | 272 kts | 196° |
| 2026-05-07 20:59 | 55.78624 | 37.54478 | 2478 ft | 266 kts | 196° |
| 2026-05-07 20:59 | 55.76923 | 37.53624 | 2486 ft | 240 kts | 196° |
| 2026-05-07 21:00 | 55.75408 | 37.52864 | 2480 ft | 212 kts | 196° |
| 2026-05-07 21:00 | 55.74075 | 37.52198 | 2489 ft | 192 kts | 196° |
| 2026-05-07 21:00 | 55.72887 | 37.51602 | 2487 ft | 160 kts | 196° |
| 2026-05-07 21:00 | 55.71911 | 37.51112 | 2483 ft | 138 kts | 196° |
| 2026-05-07 21:01 | 55.71004 | 37.50654 | 2485 ft | 134 kts | 197° |
| 2026-05-07 21:01 | 55.70105 | 37.50200 | 2485 ft | 134 kts | 197° |
| 2026-05-07 21:01 | 55.69205 | 37.49746 | 2493 ft | 133 kts | 197° |
| 2026-05-07 21:01 | 55.68326 | 37.49305 | 2350 ft | 130 kts | 196° |
| 2026-05-07 21:02 | 55.67449 | 37.48866 | 2064 ft | 132 kts | 196° |
| 2026-05-07 21:02 | 55.66574 | 37.48428 | 1987 ft | 132 kts | 195° |
| 2026-05-07 21:02 | 55.64927 | 37.47602 | 1997 ft | 135 kts | 196° |
| 2026-05-07 21:03 | 55.64034 | 37.47056 | 1991 ft | 134 kts | 212° |
| 2026-05-07 21:03 | 55.63498 | 37.45710 | 2003 ft | 140 kts | 242° |
| 2026-05-07 21:03 | 55.63155 | 37.44103 | 1998 ft | 138 kts | 244° |
| 2026-05-07 21:03 | 55.62820 | 37.42512 | 1999 ft | 138 kts | 244° |
| 2026-05-07 21:04 | 55.62474 | 37.40938 | 2001 ft | 138 kts | 243° |
| 2026-05-07 21:04 | 55.62117 | 37.39339 | 1933 ft | 141 kts | 243° |
| 2026-05-07 21:04 | 55.61778 | 37.37742 | 1723 ft | 140 kts | 245° |
| 2026-05-07 21:04 | 55.61418 | 37.36152 | 1547 ft | 139 kts | 246° |
| 2026-05-07 21:05 | 55.61035 | 37.34551 | 1336 ft | 142 kts | 248° |
| 2026-05-07 21:05 | 55.60699 | 37.32900 | 1150 ft | 143 kts | 247° |
| 2026-05-07 21:05 | 55.60306 | 37.31278 | 955 ft | 143 kts | 247° |
| 2026-05-07 21:05 | 55.59940 | 37.29651 | 786 ft | 142 kts | 247° |
| 2026-05-07 21:06 | 55.59580 | 37.28037 | 687 ft | 135 kts | 248° |
| 2026-05-07 21:06 | 55.59296 | 37.26776 | 674 ft | 83 kts | 249° |
| 2026-05-07 21:06 | 55.59181 | 37.26263 | 674 ft | 26 kts | 239° |
| 2026-05-07 21:06 | 55.59053 | 37.26071 | 672 ft | 24 kts | 204° |
| 2026-05-07 21:07 | 55.59011 | 37.26037 | 668 ft | 0 kts | 204° |